KDMN

Deming Municipal Airport

Deming, New Mexico, USA
KDMN 231720Z 2318/2418 22007KT P6SM FEW250 FM240300 28006KT P6SM FEW250
Issued Valid From Valid To
Apr-23 @ 17:20 UTC
(6 hours ago)
Apr-23 @ 18:00 UTC
(5 hours ago)
Apr-24 @ 18:00 UTC
(in 19 hours)
Apr-23 @ 18:00 to Apr-24 @ 03:00
KDMN 231720Z 2318/2418 22007KT P6SM FEW250
Wind Visibility Clouds
220° at 7 knots Greater than 6 miles
  • Few at 25,000' AGL
From Apr-24 @ 03:00 to Apr-24 @ 18:00
FM240300 28006KT P6SM FEW250
Wind Visibility Clouds
280° at 6 knots Greater than 6 miles
  • Few at 25,000' AGL
KDMN 231720Z 2318/2418 22007KT P6SM FEW250 FM240300 28006KT P6SM FEW250
Issued Apr-23 @ 17:20 UTC
(6 hours ago)
Valid From Apr-23 @ 18:00 UTC
(5 hours ago)
Valid To Apr-24 @ 18:00 UTC
(in 19 hours)
Apr-23 @ 18:00 - Apr-24 @ 03:00
Wind Visibility
220° at 7 knots Greater than 6 miles
Clouds
  • Few at 25,000' AGL
From Apr-24 @ 03:00 - Apr-24 @ 18:00
Wind Visibility
280° at 6 knots Greater than 6 miles
Clouds
  • Few at 25,000' AGL